Main page
METAR-TAF:

METAR-TAF

Airports :

Caen – Carpiquet Airport

Caen, France

latitude: 49-11N, longitude: 000-27W, elevation: 78 m

Current weather observation

The report was made 17 minutes ago, at 23:00 UTC
Wind 1 kt from the East/Northeast
Temperature 14°C
Humidity 77%
Pressure 999 hPa
Visibility 10 km or more
no clouds below 1500 m and no cumulonimbus

METAR: LFRK 222300Z AUTO 06001KT CAVOK 14/10 Q0999

Time: 01:17 (23:17 UTC)

Forecast

The report was made 9 hours and 17 minutes ago, at 14:00 UTC
Forecast valid from 22 at 15 UTC to 22 at 24 UTC
Wind 6 kt from the South
Visibility 10 km or more
no clouds below 1500 m and no cumulonimbus
Probability 30% :
Temporary
from 22 at 16 UTC to 22 at 21 UTC
Wind 15 kt from variable directions with gusts up to 25 kt
Visibility: 5000 m
Broken clouds at a height of 6000 ft, Towering cumulus.
rain showers

TAF: LFRK 221400Z 2215/2224 19006KT CAVOK PROB30 TEMPO 2216/2221 VRB15G25KT 5000 SHRA BKN060TCU

Weather observations and forecasts of more than 4000 airports (METAR and TAF reports).

The available stations are represented by yellow and red dots on the map.

Hover mouse over dot to see the name of the station.

Then click to see weather observations and forecasts.

To change the map : click on the green buttons with a black cross to zoom in, on the green button with a dash to zoom out, or on the green arrows for adjacent maps.


METAR-TAF: